sensor_id;sensor_type;location;lat;lon;timestamp;pressure;altitude;pressure_sealevel;temperature;humidity
56402;BME280;42299;35.160;26.100;2023-02-18T00:01:18;102540.34;;;8.42;100.00
56402;BME280;42299;35.160;26.100;2023-02-18T00:02:40;102536.91;;;8.43;100.00
56402;BME280;42299;35.160;26.100;2023-02-18T00:04:03;102540.44;;;8.43;100.00
56402;BME280;42299;35.160;26.100;2023-02-18T00:05:28;102536.97;;;8.44;100.00
56402;BME280;42299;35.160;26.100;2023-02-18T00:06:50;102532.53;;;8.43;100.00
56402;BME280;42299;35.160;26.100;2023-02-18T00:08:14;102537.06;;;8.46;100.00
56402;BME280;42299;35.160;26.100;2023-02-18T00:09:37;102538.94;;;8.48;100.00
56402;BME280;42299;35.160;26.100;2023-02-18T00:10:59;102543.38;;;8.49;100.00
56402;BME280;42299;35.160;26.100;2023-02-18T00:12:21;102537.31;;;8.50;100.00
56402;BME280;42299;35.160;26.100;2023-02-18T00:13:48;102528.69;;;8.53;100.00
56402;BME280;42299;35.160;26.100;2023-02-18T00:15:10;102540.97;;;8.54;100.00
56402;BME280;42299;35.160;26.100;2023-02-18T00:16:33;102534.16;;;8.57;100.00
56402;BME280;42299;35.160;26.100;2023-02-18T00:17:54;102532.59;;;8.61;100.00
56402;BME280;42299;35.160;26.100;2023-02-18T00:19:18;102532.84;;;8.65;100.00
56402;BME280;42299;35.160;26.100;2023-02-18T00:20:40;102529.44;;;8.68;100.00
56402;BME280;42299;35.160;26.100;2023-02-18T00:22:02;102528.72;;;8.70;100.00
56402;BME280;42299;35.160;26.100;2023-02-18T00:23:26;102525.31;;;8.73;100.00
56402;BME280;42299;35.160;26.100;2023-02-18T00:24:51;102533.31;;;8.74;100.00
56402;BME280;42299;35.160;26.100;2023-02-18T00:26:15;102527.31;;;8.77;100.00
56402;BME280;42299;35.160;26.100;2023-02-18T00:27:38;102532.34;;;8.72;100.00
56402;BME280;42299;35.160;26.100;2023-02-18T00:29:01;102526.41;;;8.60;100.00
56402;BME280;42299;35.160;26.100;2023-02-18T00:30:23;102525.13;;;8.52;100.00
56402;BME280;42299;35.160;26.100;2023-02-18T00:31:45;102524.81;;;8.46;100.00
56402;BME280;42299;35.160;26.100;2023-02-18T00:33:08;102526.38;;;8.43;100.00
56402;BME280;42299;35.160;26.100;2023-02-18T00:34:29;102527.13;;;8.40;100.00
56402;BME280;42299;35.160;26.100;2023-02-18T00:35:51;102530.59;;;8.39;100.00
56402;BME280;42299;35.160;26.100;2023-02-18T00:37:13;102525.47;;;8.42;100.00
56402;BME280;42299;35.160;26.100;2023-02-18T00:38:37;102522.19;;;8.46;100.00
56402;BME280;42299;35.160;26.100;2023-02-18T00:39:58;102528.50;;;8.50;100.00
56402;BME280;42299;35.160;26.100;2023-02-18T00:41:21;102527.81;;;8.54;100.00
56402;BME280;42299;35.160;26.100;2023-02-18T00:42:43;102528.00;;;8.57;100.00
56402;BME280;42299;35.160;26.100;2023-02-18T00:44:05;102526.38;;;8.59;100.00
56402;BME280;42299;35.160;26.100;2023-02-18T00:45:28;102527.28;;;8.59;100.00
56402;BME280;42299;35.160;26.100;2023-02-18T00:46:49;102526.41;;;8.60;100.00
56402;BME280;42299;35.160;26.100;2023-02-18T00:48:13;102528.09;;;8.58;100.00
56402;BME280;42299;35.160;26.100;2023-02-18T00:49:35;102526.28;;;8.57;100.00
56402;BME280;42299;35.160;26.100;2023-02-18T00:50:58;102521.00;;;8.57;100.00
56402;BME280;42299;35.160;26.100;2023-02-18T00:52:20;102520.28;;;8.60;100.00
56402;BME280;42299;35.160;26.100;2023-02-18T00:53:44;102522.00;;;8.59;100.00
56402;BME280;42299;35.160;26.100;2023-02-18T00:55:06;102521.16;;;8.60;100.00
56402;BME280;42299;35.160;26.100;2023-02-18T00:56:28;102520.28;;;8.60;100.00
56402;BME280;42299;35.160;26.100;2023-02-18T00:57:51;102522.97;;;8.61;100.00
56402;BME280;42299;35.160;26.100;2023-02-18T00:59:13;102512.44;;;8.61;100.00
56402;BME280;42299;35.160;26.100;2023-02-18T01:00:35;102518.59;;;8.62;100.00
56402;BME280;42299;35.160;26.100;2023-02-18T01:01:57;102515.06;;;8.61;100.00
56402;BME280;42299;35.160;26.100;2023-02-18T01:03:21;102513.19;;;8.59;100.00
56402;BME280;42299;35.160;26.100;2023-02-18T01:04:43;102512.28;;;8.58;100.00
56402;BME280;42299;35.160;26.100;2023-02-18T01:06:07;102514.94;;;8.58;100.00
56402;BME280;42299;35.160;26.100;2023-02-18T01:07:28;102515.75;;;8.57;100.00
56402;BME280;42299;35.160;26.100;2023-02-18T01:08:52;102516.66;;;8.58;100.00
56402;BME280;42299;35.160;26.100;2023-02-18T01:10:16;102510.25;;;8.53;100.00
56402;BME280;42299;35.160;26.100;2023-02-18T01:11:37;102507.44;;;8.50;100.00
56402;BME280;42299;35.160;26.100;2023-02-18T01:13:01;102503.81;;;8.48;100.00
56402;BME280;42299;35.160;26.100;2023-02-18T01:14:24;102499.31;;;8.45;100.00
56402;BME280;42299;35.160;26.100;2023-02-18T01:15:46;102499.16;;;8.42;100.00
56402;BME280;42299;35.160;26.100;2023-02-18T01:17:08;102502.59;;;8.41;100.00
56402;BME280;42299;35.160;26.100;2023-02-18T01:18:30;102506.13;;;8.42;100.00
56402;BME280;42299;35.160;26.100;2023-02-18T01:19:52;102498.25;;;8.42;100.00
56402;BME280;42299;35.160;26.100;2023-02-18T01:21:15;102488.53;;;8.40;100.00
56402;BME280;42299;35.160;26.100;2023-02-18T01:22:38;102499.00;;;8.39;100.00
56402;BME280;42299;35.160;26.100;2023-02-18T01:24:03;102487.66;;;8.40;100.00
56402;BME280;42299;35.160;26.100;2023-02-18T01:25:25;102488.47;;;8.39;100.00
56402;BME280;42299;35.160;26.100;2023-02-18T01:26:47;102491.94;;;8.38;100.00
56402;BME280;42299;35.160;26.100;2023-02-18T01:28:10;102496.19;;;8.36;100.00
56402;BME280;42299;35.160;26.100;2023-02-18T01:29:33;102494.31;;;8.33;100.00
56402;BME280;42299;35.160;26.100;2023-02-18T01:30:55;102490.72;;;8.31;100.00
56402;BME280;42299;35.160;26.100;2023-02-18T01:32:19;102495.75;;;8.28;100.00
56402;BME280;42299;35.160;26.100;2023-02-18T01:33:43;102488.78;;;8.29;100.00
56402;BME280;42299;35.160;26.100;2023-02-18T01:35:06;102496.66;;;8.29;100.00
56402;BME280;42299;35.160;26.100;2023-02-18T01:36:27;102496.06;;;8.33;100.00
56402;BME280;42299;35.160;26.100;2023-02-18T01:37:51;102495.28;;;8.35;100.00
56402;BME280;42299;35.160;26.100;2023-02-18T01:39:13;102491.94;;;8.38;100.00
56402;BME280;42299;35.160;26.100;2023-02-18T01:40:44;102497.34;;;8.41;100.00
56402;BME280;42299;35.160;26.100;2023-02-18T01:42:06;102496.38;;;8.39;100.00
56402;BME280;42299;35.160;26.100;2023-02-18T01:43:37;102496.56;;;8.27;100.00
56402;BME280;42299;35.160;26.100;2023-02-18T01:47:04;102488.84;;;8.14;100.00
56402;BME280;42299;35.160;26.100;2023-02-18T01:48:29;102489.03;;;8.17;100.00
56402;BME280;42299;35.160;26.100;2023-02-18T01:49:52;102489.13;;;8.19;100.00
56402;BME280;42299;35.160;26.100;2023-02-18T01:51:18;102486.72;;;8.23;100.00
56402;BME280;42299;35.160;26.100;2023-02-18T01:52:39;102487.81;;;8.27;100.00
56402;BME280;42299;35.160;26.100;2023-02-18T01:54:04;102482.00;;;8.32;100.00
56402;BME280;42299;35.160;26.100;2023-02-18T01:55:30;102488.47;;;8.39;100.00
56402;BME280;42299;35.160;26.100;2023-02-18T01:56:55;102485.09;;;8.42;100.00
56402;BME280;42299;35.160;26.100;2023-02-18T01:58:19;102487.66;;;8.40;100.00
56402;BME280;42299;35.160;26.100;2023-02-18T01:59:43;102488.47;;;8.39;100.00
56402;BME280;42299;35.160;26.100;2023-02-18T02:01:08;102480.31;;;8.34;100.00
56402;BME280;42299;35.160;26.100;2023-02-18T02:02:31;102482.00;;;8.32;100.00
56402;BME280;42299;35.160;26.100;2023-02-18T02:03:56;102480.88;;;8.29;100.00
56402;BME280;42299;35.160;26.100;2023-02-18T02:05:18;102469.38;;;8.27;100.00
56402;BME280;42299;35.160;26.100;2023-02-18T02:06:41;102469.22;;;8.24;100.00
56402;BME280;42299;35.160;26.100;2023-02-18T02:08:05;102475.28;;;8.23;100.00
56402;BME280;42299;35.160;26.100;2023-02-18T02:09:28;102468.22;;;8.22;100.00
56402;BME280;42299;35.160;26.100;2023-02-18T02:11:08;102473.34;;;8.19;100.00
56402;BME280;42299;35.160;26.100;2023-02-18T02:12:42;102473.94;;;8.13;100.00
56402;BME280;42299;35.160;26.100;2023-02-18T02:14:21;102470.31;;;8.11;100.00
56402;BME280;42299;35.160;26.100;2023-02-18T02:15:50;102476.22;;;8.07;100.00
56402;BME280;42299;35.160;26.100;2023-02-18T02:17:24;102463.81;;;8.05;100.00
56402;BME280;42299;35.160;26.100;2023-02-18T02:18:59;102471.53;;;8.01;100.00
56402;BME280;42299;35.160;26.100;2023-02-18T02:22:55;102473.59;;;7.91;100.00
56402;BME280;42299;35.160;26.100;2023-02-18T02:24:57;102476.03;;;7.88;100.00
56402;BME280;42299;35.160;26.100;2023-02-18T02:34:52;102479.34;;;7.84;100.00
56402;BME280;42299;35.160;26.100;2023-02-18T02:36:20;102479.44;;;7.85;100.00
56402;BME280;42299;35.160;26.100;2023-02-18T02:37:48;102479.53;;;7.87;100.00
56402;BME280;42299;35.160;26.100;2023-02-18T02:39:20;102477.84;;;7.89;100.00
56402;BME280;42299;35.160;26.100;2023-02-18T02:40:47;102477.94;;;7.90;100.00
56402;BME280;42299;35.160;26.100;2023-02-18T02:42:18;102480.66;;;7.92;100.00
56402;BME280;42299;35.160;26.100;2023-02-18T02:43:52;102476.31;;;7.92;100.00
56402;BME280;42299;35.160;26.100;2023-02-18T02:45:25;102478.84;;;7.91;100.00
56402;BME280;42299;35.160;26.100;2023-02-18T02:46:51;102486.81;;;7.92;100.00
56402;BME280;42299;35.160;26.100;2023-02-18T02:48:23;102485.00;;;7.91;100.00
56402;BME280;42299;35.160;26.100;2023-02-18T02:49:49;102479.75;;;7.91;100.00
56402;BME280;42299;35.160;26.100;2023-02-18T02:51:21;102481.56;;;7.92;100.00
56402;BME280;42299;35.160;26.100;2023-02-18T02:52:49;102487.66;;;7.91;100.00
56402;BME280;42299;35.160;26.100;2023-02-18T02:54:16;102492.00;;;7.91;100.00
56402;BME280;42299;35.160;26.100;2023-02-18T02:55:39;102486.66;;;7.89;100.00
56402;BME280;42299;35.160;26.100;2023-02-18T02:57:08;102490.19;;;7.90;100.00
56402;BME280;42299;35.160;26.100;2023-02-18T02:58:35;102486.75;;;7.91;100.00
56402;BME280;42299;35.160;26.100;2023-02-18T02:59:59;102489.38;;;7.91;100.00
56402;BME280;42299;35.160;26.100;2023-02-18T03:01:35;102483.38;;;7.93;100.00
56402;BME280;42299;35.160;26.100;2023-02-18T03:04:56;102495.44;;;7.90;100.00
56402;BME280;42299;35.160;26.100;2023-02-18T03:06:40;102493.81;;;7.92;100.00
56402;BME280;42299;35.160;26.100;2023-02-18T03:08:14;102494.53;;;7.89;100.00
56402;BME280;42299;35.160;26.100;2023-02-18T03:09:47;102493.56;;;7.87;100.00
56402;BME280;42299;35.160;26.100;2023-02-18T03:11:16;102491.66;;;7.85;100.00
56402;BME280;42299;35.160;26.100;2023-02-18T03:12:46;102489.13;;;7.86;100.00
56402;BME280;42299;35.160;26.100;2023-02-18T03:14:15;102487.22;;;7.84;100.00
56402;BME280;42299;35.160;26.100;2023-02-18T03:15:48;102490.66;;;7.83;100.00
56402;BME280;42299;35.160;26.100;2023-02-18T03:17:16;102490.56;;;7.81;100.00
56402;BME280;42299;35.160;26.100;2023-02-18T03:18:47;102492.25;;;7.79;100.00
56402;BME280;42299;35.160;26.100;2023-02-18T03:20:19;102487.72;;;7.77;100.00
56402;BME280;42299;35.160;26.100;2023-02-18T03:21:50;102484.34;;;7.79;100.00
56402;BME280;42299;35.160;26.100;2023-02-18T03:23:16;102483.59;;;7.82;100.00
56402;BME280;42299;35.160;26.100;2023-02-18T03:24:42;102481.88;;;7.82;100.00
56402;BME280;42299;35.160;26.100;2023-02-18T03:26:08;102485.59;;;7.86;100.00
56402;BME280;42299;35.160;26.100;2023-02-18T03:27:35;102480.44;;;7.87;100.00
56402;BME280;42299;35.160;26.100;2023-02-18T03:29:02;102489.19;;;7.88;100.00
56402;BME280;42299;35.160;26.100;2023-02-18T03:30:30;102485.69;;;7.87;100.00
56402;BME280;42299;35.160;26.100;2023-02-18T03:31:55;102484.84;;;7.88;100.00
56402;BME280;42299;35.160;26.100;2023-02-18T03:33:25;102480.44;;;7.87;100.00
56402;BME280;42299;35.160;26.100;2023-02-18T03:34:50;102483.06;;;7.87;100.00
56402;BME280;42299;35.160;26.100;2023-02-18T03:36:16;102487.47;;;7.88;100.00
56402;BME280;42299;35.160;26.100;2023-02-18T03:37:44;102479.56;;;7.88;100.00
56402;BME280;42299;35.160;26.100;2023-02-18T03:39:13;102484.78;;;7.87;100.00
56402;BME280;42299;35.160;26.100;2023-02-18T03:40:35;102483.88;;;7.86;100.00
56402;BME280;42299;35.160;26.100;2023-02-18T03:41:58;102479.44;;;7.85;100.00
56402;BME280;42299;35.160;26.100;2023-02-18T03:43:19;102486.56;;;7.88;100.00
56402;BME280;42299;35.160;26.100;2023-02-18T03:44:42;102479.56;;;7.88;100.00
56402;BME280;42299;35.160;26.100;2023-02-18T03:46:03;102481.38;;;7.89;100.00
56402;BME280;42299;35.160;26.100;2023-02-18T03:47:26;102484.84;;;7.88;100.00
56402;BME280;42299;35.160;26.100;2023-02-18T03:48:49;102479.44;;;7.85;100.00
56402;BME280;42299;35.160;26.100;2023-02-18T03:50:10;102481.88;;;7.82;100.00
56402;BME280;42299;35.160;26.100;2023-02-18T03:51:32;102483.53;;;7.80;100.00
56402;BME280;42299;35.160;26.100;2023-02-18T03:52:55;102490.56;;;7.81;100.00
56402;BME280;42299;35.160;26.100;2023-02-18T03:54:18;102484.50;;;7.82;100.00
56402;BME280;42299;35.160;26.100;2023-02-18T03:55:40;102489.28;;;7.89;100.00
56402;BME280;42299;35.160;26.100;2023-02-18T03:57:03;102488.69;;;7.95;100.00
56402;BME280;42299;35.160;26.100;2023-02-18T03:58:24;102493.22;;;7.97;100.00
56402;BME280;42299;35.160;26.100;2023-02-18T03:59:46;102483.63;;;7.98;100.00
56402;BME280;42299;35.160;26.100;2023-02-18T04:01:09;102486.16;;;7.96;100.00
56402;BME280;42299;35.160;26.100;2023-02-18T04:02:30;102496.53;;;7.93;100.00
56402;BME280;42299;35.160;26.100;2023-02-18T04:03:52;102487.66;;;7.91;100.00
56402;BME280;42299;35.160;26.100;2023-02-18T04:05:15;102484.78;;;7.87;100.00
56402;BME280;42299;35.160;26.100;2023-02-18T04:06:37;102487.94;;;7.81;100.00
56402;BME280;42299;35.160;26.100;2023-02-18T04:08:02;102484.25;;;7.78;100.00
56402;BME280;42299;35.160;26.100;2023-02-18T04:09:25;102487.56;;;7.74;100.00
56402;BME280;42299;35.160;26.100;2023-02-18T04:10:51;102485.66;;;7.71;100.00
56402;BME280;42299;35.160;26.100;2023-02-18T04:12:13;102486.47;;;7.70;100.00
56402;BME280;42299;35.160;26.100;2023-02-18T04:13:35;102486.56;;;7.72;100.00
56402;BME280;42299;35.160;26.100;2023-02-18T04:14:58;102483.84;;;7.70;100.00
56402;BME280;42299;35.160;26.100;2023-02-18T04:16:19;102478.59;;;7.70;100.00
56402;BME280;42299;35.160;26.100;2023-02-18T04:17:42;102487.56;;;7.74;100.00
56402;BME280;42299;35.160;26.100;2023-02-18T04:19:03;102488.78;;;7.80;100.00
56402;BME280;42299;35.160;26.100;2023-02-18T04:20:25;102492.56;;;7.85;100.00
56402;BME280;42299;35.160;26.100;2023-02-18T04:21:48;102492.81;;;7.90;100.00
56402;BME280;42299;35.160;26.100;2023-02-18T04:23:11;102496.59;;;7.95;100.00
56402;BME280;42299;35.160;26.100;2023-02-18T04:24:34;102487.88;;;7.96;100.00
56402;BME280;42299;35.160;26.100;2023-02-18T04:25:56;102490.69;;;7.99;100.00
56402;BME280;42299;35.160;26.100;2023-02-18T04:27:18;102485.44;;;7.99;100.00
56402;BME280;42299;35.160;26.100;2023-02-18T04:28:40;102482.72;;;7.97;100.00
56402;BME280;42299;35.160;26.100;2023-02-18T04:30:01;102494.03;;;7.96;100.00
56402;BME280;42299;35.160;26.100;2023-02-18T04:31:24;102497.59;;;7.97;100.00
56402;BME280;42299;35.160;26.100;2023-02-18T04:32:45;102494.88;;;7.95;100.00
56402;BME280;42299;35.160;26.100;2023-02-18T04:34:08;102495.69;;;7.94;100.00
56402;BME280;42299;35.160;26.100;2023-02-18T04:35:29;102491.28;;;7.93;100.00
56402;BME280;42299;35.160;26.100;2023-02-18T04:36:51;102498.16;;;7.91;100.00
56402;BME280;42299;35.160;26.100;2023-02-18T04:38:16;102497.97;;;7.88;100.00
56402;BME280;42299;35.160;26.100;2023-02-18T04:39:38;102497.84;;;7.85;100.00
56402;BME280;42299;35.160;26.100;2023-02-18T04:40:59;102493.19;;;7.81;100.00
56402;BME280;42299;35.160;26.100;2023-02-18T04:42:22;102493.97;;;7.79;100.00
56402;BME280;42299;35.160;26.100;2023-02-18T04:43:43;102495.69;;;7.78;100.00
56402;BME280;42299;35.160;26.100;2023-02-18T04:45:07;102495.59;;;7.77;100.00
56402;BME280;42299;35.160;26.100;2023-02-18T04:46:30;102501.75;;;7.77;100.00
56402;BME280;42299;35.160;26.100;2023-02-18T04:47:52;102498.22;;;7.77;100.00
56402;BME280;42299;35.160;26.100;2023-02-18T04:49:14;102492.06;;;7.76;100.00
56402;BME280;42299;35.160;26.100;2023-02-18T04:50:37;102496.34;;;7.74;100.00
56402;BME280;42299;35.160;26.100;2023-02-18T04:51:58;102500.59;;;7.72;100.00
56402;BME280;42299;35.160;26.100;2023-02-18T04:53:22;102495.25;;;7.71;100.00
56402;BME280;42299;35.160;26.100;2023-02-18T04:54:45;102498.59;;;7.68;100.00
56402;BME280;42299;35.160;26.100;2023-02-18T04:56:06;102495.25;;;7.71;100.00
56402;BME280;42299;35.160;26.100;2023-02-18T04:57:29;102496.69;;;7.80;100.00
56402;BME280;42299;35.160;26.100;2023-02-18T04:58:50;102495.34;;;7.88;100.00
56402;BME280;42299;35.160;26.100;2023-02-18T05:00:15;102494.13;;;7.98;100.00
56402;BME280;42299;35.160;26.100;2023-02-18T05:01:37;102487.47;;;8.05;100.00
56402;BME280;42299;35.160;26.100;2023-02-18T05:03:00;102488.47;;;8.07;100.00
56402;BME280;42299;35.160;26.100;2023-02-18T05:04:22;102490.34;;;8.09;100.00
56402;BME280;42299;35.160;26.100;2023-02-18T05:05:45;102485.09;;;8.09;100.00
56402;BME280;42299;35.160;26.100;2023-02-18T05:07:06;102491.25;;;8.10;100.00
56402;BME280;42299;35.160;26.100;2023-02-18T05:08:30;102487.81;;;8.11;100.00
56402;BME280;42299;35.160;26.100;2023-02-18T05:09:51;102493.06;;;8.11;100.00
56402;BME280;42299;35.160;26.100;2023-02-18T05:11:14;102499.31;;;8.13;100.00
56402;BME280;42299;35.160;26.100;2023-02-18T05:12:35;102499.31;;;8.13;100.00
56402;BME280;42299;35.160;26.100;2023-02-18T05:13:57;102497.66;;;8.15;100.00
56402;BME280;42299;35.160;26.100;2023-02-18T05:15:18;102494.19;;;8.16;100.00
56402;BME280;42299;35.160;26.100;2023-02-18T05:16:41;102504.81;;;8.17;100.00
56402;BME280;42299;35.160;26.100;2023-02-18T05:18:02;102496.94;;;8.17;100.00
56402;BME280;42299;35.160;26.100;2023-02-18T05:19:25;102505.63;;;8.16;100.00
56402;BME280;42299;35.160;26.100;2023-02-18T05:20:47;102498.66;;;8.17;100.00
56402;BME280;42299;35.160;26.100;2023-02-18T05:22:09;102499.66;;;8.19;100.00
56402;BME280;42299;35.160;26.100;2023-02-18T05:23:32;102505.97;;;8.22;100.00
56402;BME280;42299;35.160;26.100;2023-02-18T05:24:54;102503.50;;;8.25;100.00
56402;BME280;42299;35.160;26.100;2023-02-18T05:26:17;102496.53;;;8.26;100.00
56402;BME280;42299;35.160;26.100;2023-02-18T05:27:39;102499.97;;;8.25;100.00
56402;BME280;42299;35.160;26.100;2023-02-18T05:29:01;102499.88;;;8.23;100.00
56402;BME280;42299;35.160;26.100;2023-02-18T05:30:23;102501.59;;;8.23;100.00
56402;BME280;42299;35.160;26.100;2023-02-18T05:31:45;102506.03;;;8.24;100.00
56402;BME280;42299;35.160;26.100;2023-02-18T05:33:08;102502.59;;;8.25;100.00
56402;BME280;42299;35.160;26.100;2023-02-18T05:34:29;102500.88;;;8.25;100.00
56402;BME280;42299;35.160;26.100;2023-02-18T05:35:51;102499.97;;;8.25;100.00
56402;BME280;42299;35.160;26.100;2023-02-18T05:37:13;102508.00;;;8.28;100.00
56402;BME280;42299;35.160;26.100;2023-02-18T05:38:39;102506.50;;;8.31;100.00
56402;BME280;42299;35.160;26.100;2023-02-18T05:40:00;102508.44;;;8.35;100.00
56402;BME280;42299;35.160;26.100;2023-02-18T05:41:23;102506.22;;;8.43;100.00
56402;BME280;42299;35.160;26.100;2023-02-18T05:42:44;102511.22;;;8.55;100.00
56402;BME280;42299;35.160;26.100;2023-02-18T05:44:06;102509.16;;;8.65;100.00
56402;BME280;42299;35.160;26.100;2023-02-18T05:45:46;102511.41;;;8.75;100.00
56402;BME280;42299;35.160;26.100;2023-02-18T05:47:10;102518.88;;;8.84;100.00
56402;BME280;42299;35.160;26.100;2023-02-18T05:48:33;102519.28;;;8.92;100.00
56402;BME280;42299;35.160;26.100;2023-02-18T05:49:55;102517.00;;;8.99;100.00
56402;BME280;42299;35.160;26.100;2023-02-18T05:51:17;102521.75;;;9.06;100.00
56402;BME280;42299;35.160;26.100;2023-02-18T05:52:39;102517.88;;;9.16;100.00
56402;BME280;42299;35.160;26.100;2023-02-18T05:54:03;102515.09;;;9.31;100.00
56402;BME280;42299;35.160;26.100;2023-02-18T05:55:25;102518.41;;;9.44;100.00
56402;BME280;42299;35.160;26.100;2023-02-18T05:56:48;102515.53;;;9.57;100.00
56402;BME280;42299;35.160;26.100;2023-02-18T05:58:10;102519.69;;;9.72;100.00
56402;BME280;42299;35.160;26.100;2023-02-18T05:59:33;102508.84;;;9.83;100.00
56402;BME280;42299;35.160;26.100;2023-02-18T06:00:54;102513.75;;;9.95;100.00
56402;BME280;42299;35.160;26.100;2023-02-18T06:02:17;102503.75;;;10.07;100.00
56402;BME280;42299;35.160;26.100;2023-02-18T06:03:42;102506.91;;;10.18;100.00
56402;BME280;42299;35.160;26.100;2023-02-18T06:05:04;102513.69;;;10.30;100.00
56402;BME280;42299;35.160;26.100;2023-02-18T06:06:27;102508.03;;;10.42;100.00
56402;BME280;42299;35.160;26.100;2023-02-18T06:07:48;102507.66;;;10.54;100.00
56402;BME280;42299;35.160;26.100;2023-02-18T06:09:12;102504.56;;;10.64;100.00
56402;BME280;42299;35.160;26.100;2023-02-18T06:10:35;102505.88;;;10.73;100.00
56402;BME280;42299;35.160;26.100;2023-02-18T06:11:57;102495.56;;;10.79;100.00
56402;BME280;42299;35.160;26.100;2023-02-18T06:13:20;102501.19;;;10.87;100.00
56402;BME280;42299;35.160;26.100;2023-02-18T06:14:42;102500.63;;;10.94;100.00
56402;BME280;42299;35.160;26.100;2023-02-18T06:16:04;102501.06;;;11.05;100.00
56402;BME280;42299;35.160;26.100;2023-02-18T06:17:26;102499.69;;;11.14;100.00
56402;BME280;42299;35.160;26.100;2023-02-18T06:18:49;102502.78;;;11.25;100.00
56402;BME280;42299;35.160;26.100;2023-02-18T06:20:11;102498.63;;;11.32;100.00
56402;BME280;42299;35.160;26.100;2023-02-18T06:21:34;102498.94;;;11.39;100.00
56402;BME280;42299;35.160;26.100;2023-02-18T06:22:55;102502.81;;;11.47;100.00
56402;BME280;42299;35.160;26.100;2023-02-18T06:24:19;102496.13;;;11.57;100.00
56402;BME280;42299;35.160;26.100;2023-02-18T06:25:40;102494.69;;;11.65;100.00
56402;BME280;42299;35.160;26.100;2023-02-18T06:27:03;102490.59;;;11.73;100.00
56402;BME280;42299;35.160;26.100;2023-02-18T06:28:25;102497.16;;;11.83;100.00
56402;BME280;42299;35.160;26.100;2023-02-18T06:29:47;102497.47;;;11.90;100.00
56402;BME280;42299;35.160;26.100;2023-02-18T06:31:09;102504.06;;;12.02;100.00
56402;BME280;42299;35.160;26.100;2023-02-18T06:32:30;102498.16;;;12.09;100.00
56402;BME280;42299;35.160;26.100;2023-02-18T06:33:52;102502.13;;;12.20;100.00
56402;BME280;42299;35.160;26.100;2023-02-18T06:35:15;102498.19;;;12.34;100.00
56402;BME280;42299;35.160;26.100;2023-02-18T06:36:36;102498.75;;;12.49;100.00
56402;BME280;42299;35.160;26.100;2023-02-18T06:38:00;102489.50;;;12.62;100.00
56402;BME280;42299;35.160;26.100;2023-02-18T06:39:23;102494.44;;;12.76;100.00
56402;BME280;42299;35.160;26.100;2023-02-18T06:40:46;102488.69;;;12.90;100.00
56402;BME280;42299;35.160;26.100;2023-02-18T06:42:07;102487.31;;;13.01;100.00
56402;BME280;42299;35.160;26.100;2023-02-18T06:43:29;102487.63;;;13.10;100.00
56402;BME280;42299;35.160;26.100;2023-02-18T06:44:52;102478.22;;;13.20;100.00
56402;BME280;42299;35.160;26.100;2023-02-18T06:46:14;102485.66;;;13.30;100.00
56402;BME280;42299;35.160;26.100;2023-02-18T06:47:37;102482.44;;;13.40;100.00
56402;BME280;42299;35.160;26.100;2023-02-18T06:48:59;102482.84;;;13.52;100.00
56402;BME280;42299;35.160;26.100;2023-02-18T06:50:21;102484.97;;;13.64;100.00
56402;BME280;42299;35.160;26.100;2023-02-18T06:51:43;102480.06;;;13.77;100.00
56402;BME280;42299;35.160;26.100;2023-02-18T06:53:05;102484.91;;;13.90;100.00
56402;BME280;42299;35.160;26.100;2023-02-18T06:54:28;102487.13;;;14.07;100.00
56402;BME280;42299;35.160;26.100;2023-02-18T06:55:50;102489.41;;;14.24;100.00
56402;BME280;42299;35.160;26.100;2023-02-18T06:57:11;102489.06;;;14.42;100.00
56402;BME280;42299;35.160;26.100;2023-02-18T06:58:34;102485.16;;;14.61;100.00
56402;BME280;42299;35.160;26.100;2023-02-18T06:59:56;102484.72;;;14.79;100.00
56402;BME280;42299;35.160;26.100;2023-02-18T07:01:18;102490.56;;;14.98;100.00
56402;BME280;42299;35.160;26.100;2023-02-18T07:02:41;102487.38;;;15.13;100.00
56402;BME280;42299;35.160;26.100;2023-02-18T07:04:02;102486.88;;;15.28;100.00
56402;BME280;42299;35.160;26.100;2023-02-18T07:05:25;102493.44;;;15.43;100.00
56402;BME280;42299;35.160;26.100;2023-02-18T07:06:48;102487.66;;;15.60;100.00
56402;BME280;42299;35.160;26.100;2023-02-18T07:08:09;102489.78;;;15.74;100.00
56402;BME280;42299;35.160;26.100;2023-02-18T07:09:33;102486.56;;;15.90;100.00
56402;BME280;42299;35.160;26.100;2023-02-18T07:10:55;102485.16;;;16.08;100.00
56402;BME280;42299;35.160;26.100;2023-02-18T07:12:17;102485.41;;;16.21;100.00
56402;BME280;42299;35.160;26.100;2023-02-18T07:13:39;102490.19;;;16.38;100.00
56402;BME280;42299;35.160;26.100;2023-02-18T07:15:01;102483.34;;;16.50;100.00
56402;BME280;42299;35.160;26.100;2023-02-18T07:16:24;102484.47;;;16.61;100.00
56402;BME280;42299;35.160;26.100;2023-02-18T07:17:46;102480.16;;;16.69;100.00
56402;BME280;42299;35.160;26.100;2023-02-18T07:19:08;102479.47;;;16.81;100.00
56402;BME280;42299;35.160;26.100;2023-02-18T07:20:31;102485.94;;;16.92;100.00
56402;BME280;42299;35.160;26.100;2023-02-18T07:21:53;102480.75;;;17.03;100.00
56402;BME280;42299;35.160;26.100;2023-02-18T07:23:17;102479.19;;;17.16;100.00
56402;BME280;42299;35.160;26.100;2023-02-18T07:24:41;102478.59;;;17.35;100.00
56402;BME280;42299;35.160;26.100;2023-02-18T07:26:05;102476.19;;;17.53;100.00
56402;BME280;42299;35.160;26.100;2023-02-18T07:27:28;102473.84;;;17.71;100.00